Time;durP1;ratioP1;P1;durP2;ratioP2;P2;SDS_P1;SDS_P2;PMS_P1;PMS_P2;Temp;Humidity;BMP_temperature;BMP_pressure;BME280_temperature;BME280_humidity;BME280_pressure;Samples;Min_cycle;Max_cycle;Signal;HPM_P1;HPM_P2
2022/10/10 00:00:46;;;;;;;;;;;;;;;;;;5024794;28;19917;-61
2022/10/10 00:03:11;;;;;;;;;;;;;;;;;;5043493;28;19971;-59
2022/10/10 00:05:37;;;;;;;;;;;;;;;;;;5039937;28;19917;-63
2022/10/10 00:08:02;;;;;;;;;;;;;;;;;;5042320;28;21075;-62
2022/10/10 00:10:30;;;;;;;;;;;;;;;;;;5038100;28;19920;-62
2022/10/10 00:12:55;;;;;;;;;;;;;;;;;;5037191;28;19932;-62
2022/10/10 00:15:20;;;;;;;;;;;;;;;;;;5039596;28;21274;-63
2022/10/10 00:17:48;;;;;;;;;;;;;;;;;;5040338;28;19924;-62
2022/10/10 00:20:16;;;;;;;;;;;;;;;;;;5046425;28;19942;-61
2022/10/10 00:22:44;;;;;;;;;;;;;;;;;;5048169;28;19921;-61
2022/10/10 00:25:11;;;;;;;;;;;;;;;;;;5039513;28;19916;-60
2022/10/10 00:27:37;;;;;;;;;;;;;;;;;;5038659;28;19928;-61
2022/10/10 00:30:03;;;;;;;;;;;;;;;;;;5037930;28;19916;-61
2022/10/10 00:32:31;;;;;;;;;;;;;;;;;;5042711;28;20539;-61
2022/10/10 00:34:56;;;;;;;;;;;;;;;;;;5042455;28;19917;-61
2022/10/10 00:37:21;;;;;;;;;;;;;;;;;;5041104;28;19971;-60
2022/10/10 00:39:47;;;;;;;;;;;;;;;;;;5047534;28;20291;-62
2022/10/10 00:42:12;;;;;;;;;;;;;;;;;;5047211;28;21826;-62
2022/10/10 00:44:37;;;;;;;;;;;;;;;;;;5041261;28;20058;-60
2022/10/10 00:47:05;;;;;;;;;;;;;;;;;;5039686;28;19924;-61
2022/10/10 00:49:30;;;;;;;;;;;;;;;;;;5040933;28;20425;-61
2022/10/10 00:51:56;;;;;;;;;;;;;;;;;;5039035;28;19925;-61
2022/10/10 00:54:21;;;;;;;;;;;;;;;;;;5025482;28;19920;-62
2022/10/10 00:56:54;;;;;;;;;;;;;;;;;;5040458;28;19943;-62
2022/10/10 00:59:21;;;;;;;;;;;;;;;;;;5039752;28;20353;-62
2022/10/10 01:01:51;;;;;;;;;;;;;;;;;;5037148;28;20062;-62
2022/10/10 01:04:17;;;;;;;;;;;;;;;;;;5040545;28;20969;-64
2022/10/10 01:06:44;;;;;;;;;;;;;;;;;;5037216;28;19917;-62
2022/10/10 01:09:12;;;;;;;;;;;;;;;;;;5041155;28;19956;-62
2022/10/10 01:11:38;;;;;;;;;;;;;;;;;;5041713;28;20003;-62
2022/10/10 01:20:16;;;;;;;;;;;;;;;;;;5035175;28;20821;-62
2022/10/10 01:22:41;;;;;;;;;;;;;;;;;;5039739;28;19928;-62
2022/10/10 01:25:09;;;;;;;;;;;;;;;;;;5040626;28;19916;-62
2022/10/10 01:27:35;;;;;;;;;;;;;;;;;;5041615;28;19994;-62
2022/10/10 01:30:09;;;;;;;;;;;;;;;;;;5047427;28;19920;-61
2022/10/10 01:32:59;;;;;;;;;;;;;;;;;;5041782;28;20065;-62
2022/10/10 01:35:28;;;;;;;;;;;;;;;;;;5041697;28;20412;-61
2022/10/10 01:37:53;;;;;;;;;;;;;;;;;;5043689;28;20528;-62
2022/10/10 01:40:19;;;;;;;;;;;;;;;;;;5040803;28;19917;-61
2022/10/10 01:42:45;;;;;;;;;;;;;;;;;;5043285;28;20125;-60
2022/10/10 01:45:12;;;;;;;;;;;;;;;;;;5030930;28;20429;-61
2022/10/10 01:47:38;;;;;;;;;;;;;;;;;;5042957;28;19917;-62
2022/10/10 01:50:04;;;;;;;;;;;;;;;;;;5044937;28;20473;-61
2022/10/10 01:52:29;;;;;;;;;;;;;;;;;;5043794;28;19920;-61
2022/10/10 01:54:54;;;;;;;;;;;;;;;;;;5041182;28;19916;-62
2022/10/10 01:57:22;;;;;;;;;;;;;;;;;;5040202;28;19948;-60
2022/10/10 01:59:47;;;;;;;;;;;;;;;;;;5044701;28;20010;-62
2022/10/10 02:02:12;;;;;;;;;;;;;;;;;;5041087;28;19948;-62
2022/10/10 02:04:38;;;;;;;;;;;;;;;;;;5045850;28;19921;-61
2022/10/10 02:07:03;;;;;;;;;;;;;;;;;;5024290;28;19973;-62
2022/10/10 02:09:33;;;;;;;;;;;;;;;;;;5043060;28;20388;-61
2022/10/10 02:11:59;;;;;;;;;;;;;;;;;;5042357;28;19920;-62
2022/10/10 02:14:24;;;;;;;;;;;;;;;;;;5042820;28;20808;-61
2022/10/10 02:16:49;;;;;;;;;;;;;;;;;;5032863;28;19928;-61
2022/10/10 02:19:14;;;;;;;;;;;;;;;;;;5041759;28;20829;-60
2022/10/10 02:21:40;;;;;;;;;;;;;;;;;;5043742;28;19921;-60
2022/10/10 02:24:07;;;;;;;;;;;;;;;;;;5044610;28;19932;-61
2022/10/10 02:26:35;;;;;;;;;;;;;;;;;;5044248;28;21004;-61
2022/10/10 02:29:03;;;;;;;;;;;;;;;;;;5042099;28;20636;-61
2022/10/10 02:31:28;;;;;;;;;;;;;;;;;;5050148;28;19927;-62
2022/10/10 02:33:55;;;;;;;;;;;;;;;;;;5026575;28;19917;-61
2022/10/10 02:36:23;;;;;;;;;;;;;;;;;;5041448;28;19920;-59
2022/10/10 02:38:51;;;;;;;;;;;;;;;;;;5042758;28;19963;-61
2022/10/10 02:41:20;;;;;;;;;;;;;;;;;;5032774;28;20756;-61
2022/10/10 02:43:45;;;;;;;;;;;;;;;;;;5045105;28;19924;-60
2022/10/10 02:46:10;;;;;;;;;;;;;;;;;;5042213;28;19996;-61
2022/10/10 02:48:36;;;;;;;;;;;;;;;;;;5043356;28;19917;-61
2022/10/10 02:51:02;;;;;;;;;;;;;;;;;;5042805;28;19920;-61
2022/10/10 02:53:29;;;;;;;;;;;;;;;;;;5041245;28;19920;-60
2022/10/10 02:55:57;;;;;;;;;;;;;;;;;;5049900;28;19999;-60
2022/10/10 02:58:22;;;;;;;;;;;;;;;;;;5040390;28;19997;-61
2022/10/10 03:00:51;;;;;;;;;;;;;;;;;;5042468;28;19924;-61
2022/10/10 03:03:16;;;;;;;;;;;;;;;;;;5044001;28;19928;-61
2022/10/10 03:05:42;;;;;;;;;;;;;;;;;;5044243;28;19916;-61
2022/10/10 03:08:10;;;;;;;;;;;;;;;;;;5042081;28;19917;-61
2022/10/10 03:10:35;;;;;;;;;;;;;;;;;;5048709;28;19931;-61
2022/10/10 03:13:00;;;;;;;;;;;;;;;;;;5042532;28;20887;-61
2022/10/10 03:15:28;;;;;;;;;;;;;;;;;;5041793;28;19956;-60
2022/10/10 03:18:01;;;;;;;;;;;;;;;;;;5041400;28;20016;-60
2022/10/10 03:20:29;;;;;;;;;;;;;;;;;;5043170;28;20018;-60
2022/10/10 03:22:57;;;;;;;;;;;;;;;;;;5030433;28;20023;-60
2022/10/10 03:25:24;;;;;;;;;;;;;;;;;;5044708;28;19956;-59
2022/10/10 03:27:50;;;;;;;;;;;;;;;;;;5043385;28;21929;-60
2022/10/10 03:30:16;;;;;;;;;;;;;;;;;;5032870;28;19967;-59
2022/10/10 03:32:44;;;;;;;;;;;;;;;;;;5042893;28;19928;-62
2022/10/10 03:35:09;;;;;;;;;;;;;;;;;;5039455;28;19921;-61
2022/10/10 03:37:35;;;;;;;;;;;;;;;;;;5031120;28;19920;-62
2022/10/10 03:40:03;;;;;;;;;;;;;;;;;;5039862;28;20011;-62
2022/10/10 03:42:28;;;;;;;;;;;;;;;;;;5030672;28;19935;-62
2022/10/10 03:44:56;;;;;;;;;;;;;;;;;;5042953;28;19925;-61
2022/10/10 03:47:21;;;;;;;;;;;;;;;;;;5031333;28;19928;-61
2022/10/10 03:49:47;;;;;;;;;;;;;;;;;;5043786;28;19981;-60
2022/10/10 03:52:12;;;;;;;;;;;;;;;;;;5040595;28;20595;-61
2022/10/10 03:54:37;;;;;;;;;;;;;;;;;;5039515;28;20405;-61
2022/10/10 03:57:03;;;;;;;;;;;;;;;;;;5301550;22;19934;-60
2022/10/10 03:59:31;;;;;;;;;;;;;;;;;;5018596;28;19979;-61
2022/10/10 04:01:57;;;;;;;;;;;;;;;;;;5024113;28;20035;-62
2022/10/10 04:04:24;;;;;;;;;;;;;;;;;;5023404;28;19927;-61
2022/10/10 04:06:51;;;;;;;;;;;;;;;;;;5023912;28;20792;-61
2022/10/10 04:09:17;;;;;;;;;;;;;;;;;;5023893;28;19921;-61
2022/10/10 04:11:45;;;;;;;;;;;;;;;;;;5024001;28;19936;-61
2022/10/10 04:14:10;;;;;;;;;;;;;;;;;;5023143;28;20202;-62
2022/10/10 04:16:38;;;;;;;;;;;;;;;;;;5023955;28;20114;-61
2022/10/10 04:19:03;;;;;;;;;;;;;;;;;;5009573;28;19920;-61
2022/10/10 04:21:29;;;;;;;;;;;;;;;;;;5024130;28;20403;-61
2022/10/10 04:23:57;;;;;;;;;;;;;;;;;;5035259;28;20011;-61
2022/10/10 04:26:25;;;;;;;;;;;;;;;;;;5023888;28;19994;-60
2022/10/10 04:28:50;;;;;;;;;;;;;;;;;;5034945;28;20611;-60
2022/10/10 04:31:16;;;;;;;;;;;;;;;;;;5024298;28;20078;-60
2022/10/10 04:33:43;;;;;;;;;;;;;;;;;;5006697;28;19920;-59
2022/10/10 04:36:09;;;;;;;;;;;;;;;;;;5019434;28;19924;-61
2022/10/10 04:38:35;;;;;;;;;;;;;;;;;;5023680;28;20578;-61
2022/10/10 04:41:03;;;;;;;;;;;;;;;;;;5021887;28;19921;-60
2022/10/10 04:43:33;;;;;;;;;;;;;;;;;;5023887;28;20167;-61
2022/10/10 04:45:58;;;;;;;;;;;;;;;;;;5024163;28;19916;-60
2022/10/10 04:48:26;;;;;;;;;;;;;;;;;;5032166;28;19955;-61
2022/10/10 04:50:52;;;;;;;;;;;;;;;;;;5023854;28;20394;-62
2022/10/10 04:53:17;;;;;;;;;;;;;;;;;;5009123;28;19920;-60
2022/10/10 04:55:42;;;;;;;;;;;;;;;;;;5022480;28;20024;-60
2022/10/10 04:58:07;;;;;;;;;;;;;;;;;;5023999;28;19929;-61
2022/10/10 05:00:33;;;;;;;;;;;;;;;;;;5023381;28;19921;-60
2022/10/10 05:03:03;;;;;;;;;;;;;;;;;;5026454;28;19932;-60
2022/10/10 05:05:31;;;;;;;;;;;;;;;;;;5027528;28;20654;-60
2022/10/10 05:07:57;;;;;;;;;;;;;;;;;;5026875;28;19921;-61
2022/10/10 05:10:22;;;;;;;;;;;;;;;;;;5026346;28;19925;-60
2022/10/10 05:12:48;;;;;;;;;;;;;;;;;;5028575;28;19925;-60
2022/10/10 05:15:13;;;;;;;;;;;;;;;;;;5025968;28;19928;-61
2022/10/10 05:17:39;;;;;;;;;;;;;;;;;;5027916;28;19920;-61
2022/10/10 05:20:07;;;;;;;;;;;;;;;;;;5026861;28;20770;-61
2022/10/10 05:22:32;;;;;;;;;;;;;;;;;;5028695;28;19930;-61
2022/10/10 05:25:15;;;;;;;;;;;;;;;;;;5026608;28;19967;-61
2022/10/10 05:27:43;;;;;;;;;;;;;;;;;;5028035;28;19932;-61
2022/10/10 05:30:08;;;;;;;;;;;;;;;;;;5024481;28;20382;-61
2022/10/10 05:32:36;;;;;;;;;;;;;;;;;;5028756;28;20059;-61
2022/10/10 05:38:18;;;;;;;;;;;;;;;;;;5027504;28;20479;-61
2022/10/10 05:40:46;;;;;;;;;;;;;;;;;;5025907;28;22025;-62
2022/10/10 05:43:14;;;;;;;;;;;;;;;;;;5026389;28;19925;-61
2022/10/10 05:45:42;;;;;;;;;;;;;;;;;;5027734;28;19921;-61
2022/10/10 05:48:07;;;;;;;;;;;;;;;;;;5027443;28;20341;-61
2022/10/10 05:50:32;;;;;;;;;;;;;;;;;;5026768;28;20560;-61
2022/10/10 05:52:58;;;;;;;;;;;;;;;;;;5029946;28;20334;-61
2022/10/10 05:55:26;;;;;;;;;;;;;;;;;;5006508;28;19964;-61
2022/10/10 05:57:51;;;;;;;;;;;;;;;;;;5030388;28;19951;-61
2022/10/10 06:00:19;;;;;;;;;;;;;;;;;;5024980;28;20359;-61
2022/10/10 06:02:47;;;;;;;;;;;;;;;;;;5025449;28;20146;-61
2022/10/10 06:05:13;;;;;;;;;;;;;;;;;;5028124;28;19916;-60
2022/10/10 06:07:40;;;;;;;;;;;;;;;;;;5013884;28;20010;-61
2022/10/10 06:10:08;;;;;;;;;;;;;;;;;;5024705;28;20018;-61
2022/10/10 06:12:34;;;;;;;;;;;;;;;;;;5025958;28;19917;-61
2022/10/10 06:15:02;;;;;;;;;;;;;;;;;;5026984;28;19970;-62
2022/10/10 06:17:27;;;;;;;;;;;;;;;;;;5018839;28;19917;-61
2022/10/10 06:19:55;;;;;;;;;;;;;;;;;;5026539;28;20794;-61
2022/10/10 06:22:21;;;;;;;;;;;;;;;;;;5026621;28;19962;-61
2022/10/10 06:24:47;;;;;;;;;;;;;;;;;;5036834;28;19928;-61
2022/10/10 06:30:28;;;;;;;;;;;;;;;;;;5025288;28;20308;-61
2022/10/10 06:32:54;;;;;;;;;;;;;;;;;;5025111;28;19952;-61
2022/10/10 06:35:19;;;;;;;;;;;;;;;;;;5025798;28;19940;-61
2022/10/10 06:40:35;;;;;;;;;;;;;;;;;;5025600;28;19921;-61
2022/10/10 06:46:17;;;;;;;;;;;;;;;;;;5025982;28;19928;-60
2022/10/10 06:54:53;;;;;;;;;;;;;;;;;;5025880;28;19921;-62
2022/10/10 07:00:38;;;;;;;;;;;;;;;;;;5024983;28;20297;-61
2022/10/10 07:03:03;;;;;;;;;;;;;;;;;;5040885;28;19928;-61
2022/10/10 07:05:28;;;;;;;;;;;;;;;;;;5005832;28;19931;-62
2022/10/10 07:07:56;;;;;;;;;;;;;;;;;;5026764;28;19913;-59
2022/10/10 07:10:21;;;;;;;;;;;;;;;;;;5024798;28;19925;-59
2022/10/10 07:12:47;;;;;;;;;;;;;;;;;;5005882;28;19944;-60
2022/10/10 07:15:15;;;;;;;;;;;;;;;;;;5028059;28;19921;-61
2022/10/10 07:23:50;;;;;;;;;;;;;;;;;;5026203;28;19975;-61
2022/10/10 07:26:19;;;;;;;;;;;;;;;;;;5023432;28;19925;-60
2022/10/10 07:28:45;;;;;;;;;;;;;;;;;;5023035;28;19948;-60
2022/10/10 07:31:10;;;;;;;;;;;;;;;;;;5040668;28;20054;-61
2022/10/10 07:33:35;;;;;;;;;;;;;;;;;;5022826;28;20680;-61
2022/10/10 07:36:01;;;;;;;;;;;;;;;;;;5025086;28;20675;-60
2022/10/10 07:38:26;;;;;;;;;;;;;;;;;;5022010;28;19990;-60
2022/10/10 07:40:51;;;;;;;;;;;;;;;;;;5023351;28;20594;-60
2022/10/10 07:43:17;;;;;;;;;;;;;;;;;;5026419;28;19924;-60
2022/10/10 07:45:42;;;;;;;;;;;;;;;;;;5023900;28;20003;-59
2022/10/10 07:48:08;;;;;;;;;;;;;;;;;;5023873;28;20023;-60
2022/10/10 07:50:35;;;;;;;;;;;;;;;;;;5022198;28;19921;-60
2022/10/10 07:55:53;;;;;;;;;;;;;;;;;;5022404;28;20831;-60
2022/10/10 07:58:18;;;;;;;;;;;;;;;;;;5021582;28;19932;-60
2022/10/10 08:00:44;;;;;;;;;;;;;;;;;;5027247;28;20031;-60
2022/10/10 08:03:10;;;;;;;;;;;;;;;;;;5024302;28;19998;-60
2022/10/10 08:05:35;;;;;;;;;;;;;;;;;;5008106;28;19921;-59
2022/10/10 08:08:00;;;;;;;;;;;;;;;;;;5025286;28;19963;-60
2022/10/10 08:10:27;;;;;;;;;;;;;;;;;;5005783;28;21927;-59
2022/10/10 08:12:55;;;;;;;;;;;;;;;;;;5024834;28;19939;-61
2022/10/10 08:18:38;;;;;;;;;;;;;;;;;;5024776;28;19931;-61
2022/10/10 08:24:19;;;;;;;;;;;;;;;;;;5023251;28;20043;-60
2022/10/10 08:26:45;;;;;;;;;;;;;;;;;;5022412;28;20796;-61
2022/10/10 08:29:10;;;;;;;;;;;;;;;;;;5021993;28;19960;-61
2022/10/10 08:31:35;;;;;;;;;;;;;;;;;;5025458;28;20011;-60
2022/10/10 08:37:17;;;;;;;;;;;;;;;;;;5022105;28;20030;-59
2022/10/10 08:39:58;;;;;;;;;;;;;;;;;;5023577;28;19935;-60
2022/10/10 08:42:26;;;;;;;;;;;;;;;;;;5022418;28;19921;-59
2022/10/10 08:44:51;;;;;;;;;;;;;;;;;;5009654;28;19978;-60
2022/10/10 08:47:17;;;;;;;;;;;;;;;;;;5024551;28;19917;-59
2022/10/10 08:49:43;;;;;;;;;;;;;;;;;;5023041;28;19921;-60
2022/10/10 08:52:08;;;;;;;;;;;;;;;;;;5024423;28;19917;-60
2022/10/10 08:57:53;;;;;;;;;;;;;;;;;;5023624;28;19950;-61
2022/10/10 09:00:19;;;;;;;;;;;;;;;;;;5021765;28;19921;-60
2022/10/10 09:02:49;;;;;;;;;;;;;;;;;;5018435;28;19959;-60
2022/10/10 09:05:14;;;;;;;;;;;;;;;;;;5021503;28;20253;-59
2022/10/10 09:07:40;;;;;;;;;;;;;;;;;;5024017;28;19921;-60
2022/10/10 09:10:05;;;;;;;;;;;;;;;;;;5024048;28;19999;-61
2022/10/10 09:15:49;;;;;;;;;;;;;;;;;;5024732;28;19951;-60
2022/10/10 09:18:14;;;;;;;;;;;;;;;;;;5008340;28;19925;-60
2022/10/10 09:20:39;;;;;;;;;;;;;;;;;;5022206;28;19924;-61
2022/10/10 09:23:05;;;;;;;;;;;;;;;;;;5023259;28;19936;-59
2022/10/10 09:25:30;;;;;;;;;;;;;;;;;;5002937;28;19917;-60
2022/10/10 09:27:55;;;;;;;;;;;;;;;;;;5025970;28;19928;-61
2022/10/10 09:30:21;;;;;;;;;;;;;;;;;;5019516;28;19924;-61
2022/10/10 09:32:46;;;;;;;;;;;;;;;;;;5025227;28;20736;-60
2022/10/10 09:35:17;;;;;;;;;;;;;;;;;;5023438;28;19928;-60
2022/10/10 09:37:58;;;;;;;;;;;;;;;;;;5022762;28;19917;-62
2022/10/10 09:40:26;;;;;;;;;;;;;;;;;;5021765;28;19921;-59
2022/10/10 09:42:51;;;;;;;;;;;;;;;;;;5021604;28;19928;-59
2022/10/10 09:45:17;;;;;;;;;;;;;;;;;;5023633;28;20462;-60
2022/10/10 09:47:42;;;;;;;;;;;;;;;;;;5021468;28;19936;-59
2022/10/10 09:50:07;;;;;;;;;;;;;;;;;;5016034;28;19940;-59
2022/10/10 09:55:50;;;;;;;;;;;;;;;;;;5025001;28;19986;-59
2022/10/10 09:58:15;;;;;;;;;;;;;;;;;;5026113;28;20019;-60
2022/10/10 10:00:41;;;;;;;;;;;;;;;;;;5022884;28;19921;-60
2022/10/10 10:03:06;;;;;;;;;;;;;;;;;;5025691;28;19936;-59
2022/10/10 10:08:30;;;;;;;;;;;;;;;;;;5027132;28;19963;-60
2022/10/10 10:10:58;;;;;;;;;;;;;;;;;;5024400;28;19974;-60
2022/10/10 10:16:40;;;;;;;;;;;;;;;;;;5026658;28;19928;-60
2022/10/10 10:19:07;;;;;;;;;;;;;;;;;;5026270;28;19921;-60
2022/10/10 10:21:32;;;;;;;;;;;;;;;;;;5023822;28;19928;-60
2022/10/10 10:23:58;;;;;;;;;;;;;;;;;;5026544;28;20073;-60
2022/10/10 10:29:43;;;;;;;;;;;;;;;;;;5026200;28;20418;-58
2022/10/10 10:35:04;;;;;;;;;;;;;;;;;;5027844;28;19928;-58
2022/10/10 10:37:32;;;;;;;;;;;;;;;;;;5024954;28;20022;-58
2022/10/10 10:39:58;;;;;;;;;;;;;;;;;;5025749;28;19972;-59
2022/10/10 10:42:26;;;;;;;;;;;;;;;;;;5024321;28;20461;-58
2022/10/10 10:45:07;;;;;;;;;;;;;;;;;;5024494;28;19986;-57
2022/10/10 10:54:08;;;;;;;;;;;;;;;;;;5023902;28;19932;-59
2022/10/10 10:56:39;;;;;;;;;;;;;;;;;;5024244;28;19928;-59
2022/10/10 10:59:07;;;;;;;;;;;;;;;;;;5023228;28;19921;-59
2022/10/10 11:01:32;;;;;;;;;;;;;;;;;;5026233;28;19965;-59
2022/10/10 11:07:14;;;;;;;;;;;;;;;;;;5026023;28;20277;-60
2022/10/10 11:09:40;;;;;;;;;;;;;;;;;;5026257;28;19925;-60
2022/10/10 11:12:06;;;;;;;;;;;;;;;;;;5011394;28;19921;-60
2022/10/10 11:14:35;;;;;;;;;;;;;;;;;;5023262;28;19932;-59
2022/10/10 11:17:02;;;;;;;;;;;;;;;;;;5010064;28;19994;-60
2022/10/10 11:19:30;;;;;;;;;;;;;;;;;;5023462;28;19952;-60
2022/10/10 11:21:55;;;;;;;;;;;;;;;;;;5022629;28;20051;-59
2022/10/10 11:24:23;;;;;;;;;;;;;;;;;;5026180;28;20542;-60
2022/10/10 11:26:51;;;;;;;;;;;;;;;;;;5023154;28;19924;-60
2022/10/10 11:29:16;;;;;;;;;;;;;;;;;;5026453;28;19921;-60
2022/10/10 11:31:41;;;;;;;;;;;;;;;;;;5025545;28;19921;-60
2022/10/10 11:34:09;;;;;;;;;;;;;;;;;;5017812;28;19924;-60
2022/10/10 11:36:34;;;;;;;;;;;;;;;;;;5023885;28;19971;-60
2022/10/10 11:39:00;;;;;;;;;;;;;;;;;;5027445;28;20392;-60
2022/10/10 11:41:28;;;;;;;;;;;;;;;;;;5022197;28;20821;-60
2022/10/10 11:43:53;;;;;;;;;;;;;;;;;;5024599;28;19928;-59
2022/10/10 11:46:21;;;;;;;;;;;;;;;;;;5025379;28;19921;-59
2022/10/10 11:48:47;;;;;;;;;;;;;;;;;;5024344;28;19932;-59
2022/10/10 11:54:05;;;;;;;;;;;;;;;;;;5024131;28;19917;-58
2022/10/10 11:59:47;;;;;;;;;;;;;;;;;;5018016;28;20433;-60
2022/10/10 12:02:13;;;;;;;;;;;;;;;;;;5034109;28;19937;-61
2022/10/10 12:04:41;;;;;;;;;;;;;;;;;;5021610;28;19928;-60
2022/10/10 12:07:21;;;;;;;;;;;;;;;;;;5021617;28;19924;-60
2022/10/10 12:09:49;;;;;;;;;;;;;;;;;;5008259;28;20062;-59
2022/10/10 12:12:14;;;;;;;;;;;;;;;;;;5021166;28;19956;-59
2022/10/10 12:14:42;;;;;;;;;;;;;;;;;;5020251;28;22002;-60
2022/10/10 12:17:08;;;;;;;;;;;;;;;;;;5020287;28;19971;-59
2022/10/10 12:19:35;;;;;;;;;;;;;;;;;;5023577;28;19921;-59
2022/10/10 12:22:04;;;;;;;;;;;;;;;;;;5023286;28;19924;-59
2022/10/10 12:24:29;;;;;;;;;;;;;;;;;;5021038;28;19924;-60
2022/10/10 12:26:55;;;;;;;;;;;;;;;;;;5021930;28;20781;-60
2022/10/10 12:29:20;;;;;;;;;;;;;;;;;;5022122;28;19928;-60
2022/10/10 12:31:45;;;;;;;;;;;;;;;;;;5023932;28;20043;-60
2022/10/10 12:34:11;;;;;;;;;;;;;;;;;;5023104;28;20879;-59
2022/10/10 12:36:38;;;;;;;;;;;;;;;;;;5022819;28;20039;-59
2022/10/10 12:41:55;;;;;;;;;;;;;;;;;;5024234;28;19924;-59
2022/10/10 12:44:23;;;;;;;;;;;;;;;;;;5022569;28;19921;-60
2022/10/10 12:46:49;;;;;;;;;;;;;;;;;;5023754;28;19927;-59
2022/10/10 12:49:14;;;;;;;;;;;;;;;;;;5022669;28;20051;-58
2022/10/10 12:51:41;;;;;;;;;;;;;;;;;;5022355;28;19927;-59
2022/10/10 12:54:09;;;;;;;;;;;;;;;;;;5025297;28;21007;-61
2022/10/10 12:56:39;;;;;;;;;;;;;;;;;;5023683;28;20016;-57
2022/10/10 12:59:07;;;;;;;;;;;;;;;;;;5022138;28;19986;-58
2022/10/10 13:01:33;;;;;;;;;;;;;;;;;;5022902;28;19921;-57
2022/10/10 13:03:59;;;;;;;;;;;;;;;;;;5022086;28;19943;-58
2022/10/10 13:06:24;;;;;;;;;;;;;;;;;;5009714;28;20997;-60
2022/10/10 13:12:08;;;;;;;;;;;;;;;;;;5022164;28;19986;-57
2022/10/10 13:14:33;;;;;;;;;;;;;;;;;;5020328;28;19925;-58
2022/10/10 13:20:18;;;;;;;;;;;;;;;;;;5021490;28;19924;-57
2022/10/10 13:22:44;;;;;;;;;;;;;;;;;;5022173;28;19945;-58
2022/10/10 13:25:10;;;;;;;;;;;;;;;;;;5021725;28;20311;-58
2022/10/10 13:30:35;;;;;;;;;;;;;;;;;;5027152;28;19928;-60
2022/10/10 13:33:10;;;;;;;;;;;;;;;;;;5028427;28;19952;-58
2022/10/10 13:35:35;;;;;;;;;;;;;;;;;;5008969;28;20048;-59
2022/10/10 13:41:17;;;;;;;;;;;;;;;;;;5027018;28;19999;-59
2022/10/10 13:43:42;;;;;;;;;;;;;;;;;;5010082;28;19960;-60
2022/10/10 13:46:08;;;;;;;;;;;;;;;;;;5026032;28;19960;-59
2022/10/10 13:48:33;;;;;;;;;;;;;;;;;;5027087;28;19996;-60
2022/10/10 13:51:00;;;;;;;;;;;;;;;;;;5027810;28;20015;-60
2022/10/10 13:53:28;;;;;;;;;;;;;;;;;;5025609;28;20276;-59
2022/10/10 13:59:10;;;;;;;;;;;;;;;;;;5025564;28;19978;-59
2022/10/10 14:01:35;;;;;;;;;;;;;;;;;;5026776;28;19920;-60
2022/10/10 14:04:01;;;;;;;;;;;;;;;;;;5026912;28;20139;-59
2022/10/10 14:06:30;;;;;;;;;;;;;;;;;;5018766;28;19921;-59
2022/10/10 14:08:55;;;;;;;;;;;;;;;;;;5025904;28;19920;-60
2022/10/10 14:11:20;;;;;;;;;;;;;;;;;;5018066;28;19966;-59
2022/10/10 14:13:46;;;;;;;;;;;;;;;;;;5025083;28;19917;-59
2022/10/10 14:16:13;;;;;;;;;;;;;;;;;;5023394;28;19923;-60
2022/10/10 14:18:41;;;;;;;;;;;;;;;;;;5026246;28;19921;-60
2022/10/10 14:21:10;;;;;;;;;;;;;;;;;;5023943;28;19917;-59
2022/10/10 14:23:35;;;;;;;;;;;;;;;;;;5024929;28;19927;-60
2022/10/10 14:26:00;;;;;;;;;;;;;;;;;;5025014;28;19916;-60
2022/10/10 14:28:30;;;;;;;;;;;;;;;;;;5026522;28;19944;-60
2022/10/10 14:30:56;;;;;;;;;;;;;;;;;;5024643;28;20939;-60
2022/10/10 14:36:14;;;;;;;;;;;;;;;;;;5026305;28;19917;-60
2022/10/10 14:38:40;;;;;;;;;;;;;;;;;;5026037;28;19932;-60
2022/10/10 14:41:06;;;;;;;;;;;;;;;;;;5023854;28;19921;-59
2022/10/10 14:43:35;;;;;;;;;;;;;;;;;;5028396;28;19924;-59
2022/10/10 14:52:04;;;;;;;;;;;;;;;;;;5025605;28;19929;-60
2022/10/10 14:57:46;;;;;;;;;;;;;;;;;;5026186;28;21429;-60
2022/10/10 15:00:11;;;;;;;;;;;;;;;;;;5025698;28;20380;-59
2022/10/10 15:02:36;;;;;;;;;;;;;;;;;;5024958;28;19925;-59
2022/10/10 15:08:18;;;;;;;;;;;;;;;;;;5024658;28;19934;-59
2022/10/10 15:10:43;;;;;;;;;;;;;;;;;;5022725;28;19924;-59
2022/10/10 15:13:08;;;;;;;;;;;;;;;;;;5007596;28;20042;-60
2022/10/10 15:15:43;;;;;;;;;;;;;;;;;;5026121;28;19928;-59
2022/10/10 15:18:08;;;;;;;;;;;;;;;;;;5009333;28;19921;-60
2022/10/10 15:20:35;;;;;;;;;;;;;;;;;;5024515;28;19948;-60
2022/10/10 15:23:21;;;;;;;;;;;;;;;;;;5025244;28;19974;-60
2022/10/10 15:25:46;;;;;;;;;;;;;;;;;;5009491;28;19917;-60
2022/10/10 15:28:12;;;;;;;;;;;;;;;;;;5023660;28;20000;-60
2022/10/10 15:30:38;;;;;;;;;;;;;;;;;;5027020;28;19975;-59
2022/10/10 15:33:06;;;;;;;;;;;;;;;;;;5019456;28;20525;-60
2022/10/10 15:38:20;;;;;;;;;;;;;;;;;;5023742;28;19921;-60
2022/10/10 15:40:45;;;;;;;;;;;;;;;;;;5024010;28;20003;-60
2022/10/10 15:43:14;;;;;;;;;;;;;;;;;;5024292;28;19921;-60
2022/10/10 15:45:40;;;;;;;;;;;;;;;;;;5023242;28;19921;-60
2022/10/10 15:48:05;;;;;;;;;;;;;;;;;;5025323;28;19920;-61
2022/10/10 15:50:51;;;;;;;;;;;;;;;;;;5018022;28;20482;-59
2022/10/10 15:53:32;;;;;;;;;;;;;;;;;;5025613;28;20197;-59
2022/10/10 15:59:17;;;;;;;;;;;;;;;;;;5026145;28;20030;-58
2022/10/10 16:01:44;;;;;;;;;;;;;;;;;;5022558;28;19917;-58
2022/10/10 16:07:26;;;;;;;;;;;;;;;;;;5024466;28;19924;-59
2022/10/10 16:09:53;;;;;;;;;;;;;;;;;;5017744;28;19921;-59
2022/10/10 16:12:36;;;;;;;;;;;;;;;;;;5023937;28;19924;-58
2022/10/10 16:18:18;;;;;;;;;;;;;;;;;;5026005;28;19951;-59
2022/10/10 16:23:27;;;;;;;;;;;;;;;;;;5024376;28;21956;-59
2022/10/10 16:25:58;;;;;;;;;;;;;;;;;;5023300;28;19921;-59
2022/10/10 16:31:42;;;;;;;;;;;;;;;;;;5024032;28;20011;-59
2022/10/10 16:34:09;;;;;;;;;;;;;;;;;;5021701;28;19920;-60
2022/10/10 16:36:35;;;;;;;;;;;;;;;;;;5023635;28;19924;-60
2022/10/10 16:39:00;;;;;;;;;;;;;;;;;;5024274;28;21744;-60
2022/10/10 16:44:43;;;;;;;;;;;;;;;;;;5022828;28;21955;-60
2022/10/10 16:47:10;;;;;;;;;;;;;;;;;;5000523;28;20059;-60
2022/10/10 16:49:36;;;;;;;;;;;;;;;;;;5022226;28;20017;-58
2022/10/10 16:52:01;;;;;;;;;;;;;;;;;;5024033;28;19921;-60
2022/10/10 16:57:17;;;;;;;;;;;;;;;;;;5023073;28;19921;-58
2022/10/10 17:06:06;;;;;;;;;;;;;;;;;;5026681;28;19936;-60
2022/10/10 17:08:33;;;;;;;;;;;;;;;;;;5026379;28;19923;-60
2022/10/10 17:10:59;;;;;;;;;;;;;;;;;;5026344;28;19921;-60
2022/10/10 17:13:24;;;;;;;;;;;;;;;;;;5028963;28;19928;-59
2022/10/10 17:16:02;;;;;;;;;;;;;;;;;;5027401;28;19971;-60
2022/10/10 17:18:27;;;;;;;;;;;;;;;;;;5012647;28;20379;-59
2022/10/10 17:20:58;;;;;;;;;;;;;;;;;;5026641;28;19923;-60
2022/10/10 17:23:25;;;;;;;;;;;;;;;;;;5013195;28;19967;-60
2022/10/10 17:25:56;;;;;;;;;;;;;;;;;;5025256;28;19927;-59
2022/10/10 17:28:24;;;;;;;;;;;;;;;;;;5026929;28;19917;-59
2022/10/10 17:30:49;;;;;;;;;;;;;;;;;;5028877;28;19917;-60
2022/10/10 17:33:15;;;;;;;;;;;;;;;;;;5027239;28;19925;-60
2022/10/10 17:35:40;;;;;;;;;;;;;;;;;;5025315;28;19948;-60
2022/10/10 17:38:08;;;;;;;;;;;;;;;;;;5042532;28;19920;-60
2022/10/10 17:40:33;;;;;;;;;;;;;;;;;;5025732;28;20636;-61
2022/10/10 17:42:58;;;;;;;;;;;;;;;;;;5027010;28;19917;-61
2022/10/10 17:45:26;;;;;;;;;;;;;;;;;;5025447;28;19956;-60
2022/10/10 17:47:56;;;;;;;;;;;;;;;;;;5022557;28;19920;-62
2022/10/10 17:50:27;;;;;;;;;;;;;;;;;;5025119;28;19921;-59
2022/10/10 17:52:52;;;;;;;;;;;;;;;;;;5026990;28;20299;-59
2022/10/10 17:55:17;;;;;;;;;;;;;;;;;;5025488;28;19920;-61
2022/10/10 17:57:45;;;;;;;;;;;;;;;;;;5026623;28;19921;-60
2022/10/10 18:00:10;;;;;;;;;;;;;;;;;;5027298;28;20288;-60
2022/10/10 18:02:38;;;;;;;;;;;;;;;;;;5029917;28;20836;-59
2022/10/10 18:05:06;;;;;;;;;;;;;;;;;;5025761;28;19928;-60
2022/10/10 18:07:34;;;;;;;;;;;;;;;;;;5020296;28;20028;-61
2022/10/10 18:10:00;;;;;;;;;;;;;;;;;;5027703;28;19916;-60
2022/10/10 18:12:25;;;;;;;;;;;;;;;;;;5026471;28;20418;-61
2022/10/10 18:14:51;;;;;;;;;;;;;;;;;;5025593;28;19925;-61
2022/10/10 18:17:17;;;;;;;;;;;;;;;;;;5027795;28;19921;-60
2022/10/10 18:19:46;;;;;;;;;;;;;;;;;;5026403;28;19921;-60
2022/10/10 18:22:14;;;;;;;;;;;;;;;;;;5011285;28;20051;-61
2022/10/10 18:24:39;;;;;;;;;;;;;;;;;;5029258;28;19978;-59
2022/10/10 18:27:04;;;;;;;;;;;;;;;;;;5019310;28;20391;-59
2022/10/10 18:29:32;;;;;;;;;;;;;;;;;;5023840;28;19921;-60
2022/10/10 18:32:00;;;;;;;;;;;;;;;;;;5024081;28;19917;-61
2022/10/10 18:34:25;;;;;;;;;;;;;;;;;;5024581;28;19986;-60
2022/10/10 18:36:53;;;;;;;;;;;;;;;;;;5022421;28;20020;-60
2022/10/10 18:39:21;;;;;;;;;;;;;;;;;;5026828;28;19920;-60
2022/10/10 18:41:48;;;;;;;;;;;;;;;;;;5025263;28;19928;-60
2022/10/10 18:44:19;;;;;;;;;;;;;;;;;;5028423;28;19924;-61
2022/10/10 18:46:45;;;;;;;;;;;;;;;;;;5026828;28;20269;-60
2022/10/10 18:49:12;;;;;;;;;;;;;;;;;;5023147;28;19944;-61
2022/10/10 18:51:40;;;;;;;;;;;;;;;;;;5025268;28;20031;-60
2022/10/10 18:54:09;;;;;;;;;;;;;;;;;;5024932;28;19966;-60
2022/10/10 18:56:35;;;;;;;;;;;;;;;;;;5002951;28;20533;-60
2022/10/10 18:59:02;;;;;;;;;;;;;;;;;;5025444;28;19921;-60
2022/10/10 19:01:28;;;;;;;;;;;;;;;;;;5024037;28;20291;-60
2022/10/10 19:03:54;;;;;;;;;;;;;;;;;;5011514;28;19928;-61
2022/10/10 19:06:21;;;;;;;;;;;;;;;;;;5024863;28;19966;-60
2022/10/10 19:08:47;;;;;;;;;;;;;;;;;;5024335;28;20719;-60
2022/10/10 19:11:13;;;;;;;;;;;;;;;;;;5024824;28;20414;-60
2022/10/10 19:13:38;;;;;;;;;;;;;;;;;;5023623;28;20008;-59